createdAt,value
2018-12-17T00:00:08.425Z,100967.56
2018-12-17T00:00:46.040Z,100969.98
2018-12-17T00:01:23.151Z,100971.59
2018-12-17T00:02:03.223Z,100974.28
2018-12-17T00:02:41.348Z,100972.17
2018-12-17T00:03:18.925Z,100970.83
2018-12-17T00:03:59.698Z,100972.97
2018-12-17T00:04:38.672Z,100980.23
2018-12-17T00:05:16.906Z,100977.02
2018-12-17T00:06:00.118Z,100975.94
2018-12-17T00:06:37.342Z,100980.50
2018-12-17T00:07:14.750Z,100979.16
2018-12-17T00:07:57.390Z,100980.24
2018-12-17T00:08:34.604Z,100980.51
2018-12-17T00:09:12.345Z,100984.81
2018-12-17T00:09:50.928Z,100983.20
2018-12-17T00:10:29.090Z,100984.81
2018-12-17T00:11:06.751Z,100990.73
2018-12-17T00:11:44.327Z,100982.94
2018-12-17T00:12:21.517Z,100986.97
2018-12-17T00:12:58.820Z,100985.63
2018-12-17T00:13:36.308Z,100982.94
2018-12-17T00:14:13.600Z,100979.17
2018-12-17T00:14:51.928Z,100987.23
2018-12-17T00:15:32.284Z,100985.89
2018-12-17T00:16:09.603Z,100989.66
2018-12-17T00:16:46.988Z,100993.16
2018-12-17T00:17:25.544Z,100989.39
2018-12-17T00:18:03.162Z,100996.65
2018-12-17T00:18:40.713Z,100997.45
2018-12-17T00:19:21.906Z,100993.69
2018-12-17T00:20:03.038Z,100994.77
2018-12-17T00:20:41.363Z,100994.50
2018-12-17T00:21:18.813Z,100993.42
2018-12-17T00:21:56.500Z,100992.62
2018-12-17T00:22:36.760Z,101004.72
2018-12-17T00:23:14.250Z,100997.99
2018-12-17T00:23:53.777Z,100996.65
2018-12-17T00:24:31.444Z,101005.79
2018-12-17T00:25:09.134Z,101001.22
2018-12-17T00:25:50.499Z,101005.52
2018-12-17T00:26:27.715Z,101003.41
2018-12-17T00:27:05.396Z,101011.47
2018-12-17T00:27:43.757Z,101006.37
2018-12-17T00:28:21.940Z,101012.02
2018-12-17T00:29:01.379Z,101011.75
2018-12-17T00:29:46.807Z,101016.59
2018-12-17T00:30:24.699Z,101018.47
2018-12-17T00:31:02.214Z,101020.62
2018-12-17T00:31:39.344Z,101023.31
2018-12-17T00:32:17.687Z,101022.23
2018-12-17T00:32:55.125Z,101017.13
2018-12-17T00:33:35.125Z,101021.70
2018-12-17T00:34:12.495Z,101024.66
2018-12-17T00:34:49.773Z,101023.31
2018-12-17T00:35:33.033Z,101025.20
2018-12-17T00:36:11.237Z,101028.16
2018-12-17T00:36:48.657Z,101031.11
2018-12-17T00:37:27.255Z,101028.70
2018-12-17T00:38:06.793Z,101030.04
2018-12-17T00:38:44.344Z,101035.16
2018-12-17T00:39:26.573Z,101039.99
2018-12-17T00:40:04.751Z,101038.92
2018-12-17T00:40:42.342Z,101033.54
2018-12-17T00:41:22.387Z,101040.80
2018-12-17T00:42:01.029Z,101046.72
2018-12-17T00:42:40.356Z,101044.60
2018-12-17T00:43:20.735Z,101044.60
2018-12-17T00:44:00.055Z,101042.45
2018-12-17T00:44:37.698Z,101049.72
2018-12-17T00:45:15.296Z,101048.10
2018-12-17T00:45:53.043Z,101051.36
2018-12-17T00:46:30.323Z,101052.44
2018-12-17T00:47:07.921Z,101059.16
2018-12-17T00:47:45.547Z,101057.28
2018-12-17T00:48:23.152Z,101057.81
2018-12-17T00:49:00.439Z,101057.55
2018-12-17T00:49:38.093Z,101058.62
2018-12-17T00:50:17.355Z,101056.74
2018-12-17T00:50:59.598Z,101061.05
2018-12-17T00:51:37.812Z,101060.78
2018-12-17T00:52:17.600Z,101062.39
2018-12-17T00:52:56.608Z,101067.50
2018-12-17T00:53:34.196Z,101063.47
2018-12-17T00:54:11.575Z,101064.55
2018-12-17T00:54:55.880Z,101059.97
2018-12-17T00:55:37.563Z,101064.55
2018-12-17T00:56:15.129Z,101062.12
2018-12-17T00:56:53.079Z,101058.90
2018-12-17T00:57:34.059Z,101066.44
2018-12-17T00:58:15.227Z,101069.93
2018-12-17T00:58:52.120Z,101068.31
2018-12-17T00:59:29.615Z,101070.77
2018-12-17T01:00:08.886Z,101069.69
2018-12-17T01:00:46.577Z,101075.34
2018-12-17T01:01:23.962Z,101075.61
2018-12-17T01:02:01.555Z,101072.92
2018-12-17T01:02:39.087Z,101066.20
2018-12-17T01:03:21.344Z,101072.66
2018-12-17T01:03:58.945Z,101076.69
2018-12-17T01:04:36.707Z,101075.34
2018-12-17T01:05:15.792Z,101076.95
2018-12-17T01:05:53.246Z,101078.57
2018-12-17T01:06:36.459Z,101072.11
2018-12-17T01:07:19.808Z,101076.69
2018-12-17T01:08:01.454Z,101078.03
2018-12-17T01:08:40.712Z,101079.92
2018-12-17T01:09:18.156Z,101077.77
2018-12-17T01:09:59.826Z,101080.45
2018-12-17T01:10:37.116Z,101078.03
2018-12-17T01:11:14.562Z,101075.88
2018-12-17T01:11:52.468Z,101076.96
2018-12-17T01:12:29.840Z,101081.53
2018-12-17T01:13:07.277Z,101082.07
2018-12-17T01:13:44.890Z,101083.95
2018-12-17T01:14:22.456Z,101081.27
2018-12-17T01:14:59.873Z,101084.49
2018-12-17T01:15:42.152Z,101087.75
2018-12-17T01:16:19.524Z,101086.14
2018-12-17T01:16:58.068Z,101088.29
2018-12-17T01:17:40.748Z,101088.83
2018-12-17T01:18:18.239Z,101088.83
2018-12-17T01:18:55.941Z,101088.02
2018-12-17T01:19:35.763Z,101086.94
2018-12-17T01:23:18.710Z,101087.48
2018-12-17T01:23:56.429Z,101085.05
2018-12-17T01:24:35.184Z,101086.41
2018-12-17T01:25:15.305Z,101091.52
2018-12-17T01:25:52.797Z,101089.09
2018-12-17T01:26:34.892Z,101083.44
2018-12-17T01:27:12.115Z,101083.17
2018-12-17T01:27:49.958Z,101083.44
2018-12-17T01:28:28.543Z,101083.97
2018-12-17T01:29:05.692Z,101079.12
2018-12-17T01:29:43.313Z,101080.47
2018-12-17T01:30:20.626Z,101079.95
2018-12-17T01:30:58.129Z,101081.61
2018-12-17T01:31:35.846Z,101079.45
2018-12-17T01:32:13.255Z,101083.21
2018-12-17T01:32:51.603Z,101078.63
2018-12-17T01:33:30.237Z,101075.94
2018-12-17T01:34:11.582Z,101076.47
2018-12-17T01:34:49.357Z,101078.35
2018-12-17T01:35:27.343Z,101074.84
2018-12-17T01:36:05.709Z,101077.53
2018-12-17T01:36:43.467Z,101074.56
2018-12-17T01:37:22.819Z,101071.06
2018-12-17T01:38:02.921Z,101074.59
2018-12-17T01:38:41.021Z,101074.05
2018-12-17T01:39:18.597Z,101077.02
2018-12-17T01:40:00.877Z,101076.20
2018-12-17T01:40:39.880Z,101074.05
2018-12-17T01:41:17.479Z,101069.47
2018-12-17T01:41:55.944Z,101075.12
2018-12-17T01:42:37.065Z,101070.27
2018-12-17T01:43:14.341Z,101070.00
2018-12-17T01:43:52.144Z,101070.27
2018-12-17T01:44:29.426Z,101073.49
2018-12-17T01:45:10.906Z,101080.49
2018-12-17T01:45:55.345Z,101073.75
2018-12-17T01:46:35.925Z,101077.52
2018-12-17T01:47:13.546Z,101078.59
2018-12-17T01:47:50.992Z,101074.27
2018-12-17T01:48:29.050Z,101071.84
2018-12-17T01:49:06.752Z,101075.08
2018-12-17T01:49:44.119Z,101074.80
2018-12-17T01:50:21.646Z,101078.85
2018-12-17T01:50:59.577Z,101076.16
2018-12-17T01:51:37.046Z,101074.80
2018-12-17T01:52:18.429Z,101075.08
2018-12-17T01:52:56.291Z,101073.73
2018-12-17T01:53:33.625Z,101071.30
2018-12-17T01:54:14.399Z,101074.02
2018-12-17T01:54:52.460Z,101074.83
2018-12-17T01:55:29.876Z,101075.62
2018-12-17T01:56:07.182Z,101069.70
2018-12-17T01:56:44.311Z,101074.83
2018-12-17T01:57:23.353Z,101071.32
2018-12-17T01:58:07.920Z,101071.58
2018-12-17T01:58:46.145Z,101075.61
2018-12-17T01:59:23.451Z,101077.25
2018-12-17T02:00:01.689Z,101073.74
2018-12-17T02:00:39.923Z,101074.83
2018-12-17T02:01:17.316Z,101076.17
2018-12-17T02:01:57.588Z,101076.98
2018-12-17T02:02:35.059Z,101072.39
2018-12-17T02:03:12.449Z,101076.42
2018-12-17T02:03:55.458Z,101077.50
2018-12-17T02:04:33.007Z,101073.45
2018-12-17T02:05:10.770Z,101075.34
2018-12-17T02:05:49.502Z,101077.22
2018-12-17T02:06:28.646Z,101083.14
2018-12-17T02:07:06.975Z,101075.06
2018-12-17T02:07:44.264Z,101079.09
2018-12-17T02:08:21.655Z,101074.78
2018-12-17T02:09:00.368Z,101075.05
2018-12-17T02:09:37.709Z,101080.97
2018-12-17T02:10:14.826Z,101080.97
2018-12-17T02:10:54.549Z,101081.26
2018-12-17T02:11:32.156Z,101077.75
2018-12-17T02:12:09.800Z,101083.41
2018-12-17T02:12:48.104Z,101075.84
2018-12-17T02:13:30.081Z,101082.88
2018-12-17T02:14:08.272Z,101082.88
2018-12-17T02:14:46.200Z,101078.55
2018-12-17T02:15:25.140Z,101084.47
2018-12-17T02:16:02.749Z,101083.94
2018-12-17T02:16:40.212Z,101086.89
2018-12-17T02:17:20.593Z,101086.65
2018-12-17T02:17:58.271Z,101076.67
2018-12-17T02:18:37.690Z,101081.25
2018-12-17T02:19:15.797Z,101077.77
2018-12-17T02:19:56.992Z,101072.64
2018-12-17T02:20:34.942Z,101074.25
2018-12-17T02:21:12.974Z,101076.39
2018-12-17T02:21:50.505Z,101076.66
2018-12-17T02:22:28.172Z,101074.23
2018-12-17T02:23:05.571Z,101075.84
2018-12-17T02:23:43.000Z,101080.41
2018-12-17T02:24:20.456Z,101082.30
2018-12-17T02:24:58.167Z,101075.55
2018-12-17T02:25:36.384Z,101077.43
2018-12-17T02:26:13.794Z,101075.00
2018-12-17T02:26:54.818Z,101076.61
2018-12-17T02:27:33.365Z,101078.23
2018-12-17T02:28:10.781Z,101076.34
2018-12-17T02:28:51.630Z,101077.41
2018-12-17T02:29:29.146Z,101075.23
2018-12-17T02:30:07.830Z,101081.98
2018-12-17T02:30:50.940Z,101081.45
2018-12-17T02:31:28.414Z,101077.94
2018-12-17T02:32:05.925Z,101083.59
2018-12-17T02:32:43.173Z,101082.52
2018-12-17T02:33:20.659Z,101081.42
2018-12-17T02:34:02.273Z,101082.23
2018-12-17T02:34:39.757Z,101085.45
2018-12-17T02:35:17.462Z,101083.83
2018-12-17T02:36:39.097Z,101092.98
2018-12-17T02:37:20.458Z,101090.55
2018-12-17T02:38:00.445Z,101093.77
2018-12-17T02:38:39.976Z,101096.73
2018-12-17T02:39:18.573Z,101096.99
2018-12-17T02:39:57.666Z,101092.67
2018-12-17T02:40:38.178Z,101094.03
2018-12-17T02:41:16.931Z,101095.64
2018-12-17T02:41:55.112Z,101095.37
2018-12-17T02:42:33.542Z,101097.24
2018-12-17T02:43:12.138Z,101104.23
2018-12-17T02:43:49.966Z,101098.59
2018-12-17T02:44:29.779Z,101102.89
2018-12-17T02:45:07.266Z,101107.72
2018-12-17T02:45:44.601Z,101108.52
2018-12-17T02:46:26.901Z,101104.73
2018-12-17T02:47:04.961Z,101108.79
2018-12-17T02:47:48.606Z,101109.58
2018-12-17T02:48:26.273Z,101110.91
2018-12-17T02:49:07.371Z,101105.25
2018-12-17T02:49:44.874Z,101111.68
2018-12-17T02:50:22.293Z,101113.01
2018-12-17T02:51:01.579Z,101110.84
2018-12-17T02:51:39.662Z,101110.27
2018-12-17T02:52:17.046Z,101112.18
2018-12-17T02:52:54.563Z,101111.87
2018-12-17T02:53:31.995Z,101108.09
2018-12-17T02:54:09.532Z,101110.23
2018-12-17T02:54:46.957Z,101110.48
2018-12-17T02:55:24.594Z,101104.83
2018-12-17T02:56:02.026Z,101113.14
2018-12-17T02:56:39.314Z,101106.66
2018-12-17T02:57:16.944Z,101098.58
2018-12-17T02:57:54.406Z,101105.83
2018-12-17T02:58:34.397Z,101104.22
2018-12-17T02:59:12.803Z,101105.27
2018-12-17T02:59:50.179Z,101096.64
2018-12-17T03:00:27.840Z,101107.69
2018-12-17T03:01:05.249Z,101101.23
2018-12-17T03:01:42.968Z,101103.11
2018-12-17T03:02:20.985Z,101096.89
2018-12-17T03:03:03.777Z,101090.70
2018-12-17T03:03:41.200Z,101102.78
2018-12-17T03:04:18.604Z,101101.71
2018-12-17T03:04:59.000Z,101095.27
2018-12-17T03:05:36.645Z,101101.69
2018-12-17T03:06:13.751Z,101102.49
2018-12-17T03:06:55.160Z,101104.11
2018-12-17T03:07:32.985Z,101099.22
2018-12-17T03:08:10.411Z,101091.69
2018-12-17T03:08:54.986Z,101098.70
2018-12-17T03:09:33.142Z,101098.97
2018-12-17T03:10:10.875Z,101093.30
2018-12-17T03:10:49.190Z,101093.56
2018-12-17T03:11:26.489Z,101094.39
2018-12-17T03:12:04.390Z,101092.99
2018-12-17T03:12:41.955Z,101094.86
2018-12-17T03:13:19.412Z,101092.16
2018-12-17T03:13:57.171Z,101087.56
2018-12-17T03:14:34.577Z,101088.92
2018-12-17T03:15:11.839Z,101091.88
2018-12-17T03:15:49.465Z,101093.77
2018-12-17T03:16:27.073Z,101090.53
2018-12-17T03:17:04.077Z,101087.83
2018-12-17T03:17:48.603Z,101085.66
2018-12-17T03:18:31.373Z,101085.66
2018-12-17T03:19:24.174Z,101088.33
2018-12-17T03:20:10.225Z,101080.45
2018-12-17T03:20:48.191Z,101072.38
2018-12-17T03:21:25.714Z,101083.13
2018-12-17T03:22:06.653Z,101087.96
2018-12-17T03:22:43.995Z,101073.70
2018-12-17T03:23:21.482Z,101087.13
2018-12-17T03:24:01.493Z,101086.59
2018-12-17T03:24:38.871Z,101085.75
2018-12-17T03:25:16.241Z,101085.20
2018-12-17T03:25:54.866Z,101081.70
2018-12-17T03:26:32.163Z,101080.06
2018-12-17T03:27:09.858Z,101081.67
2018-12-17T03:27:47.694Z,101082.74
2018-12-17T03:28:25.102Z,101080.01
2018-12-17T03:29:02.545Z,101080.55
2018-12-17T03:29:45.799Z,101083.80
2018-12-17T03:30:23.129Z,101078.92
2018-12-17T03:31:00.302Z,101064.63
2018-12-17T03:31:39.914Z,101073.23
2018-12-17T03:32:16.841Z,101064.59
2018-12-17T03:32:54.518Z,101073.45
2018-12-17T03:33:36.102Z,101072.36
2018-12-17T03:34:14.538Z,101076.67
2018-12-17T03:34:52.237Z,101072.91
2018-12-17T03:35:33.629Z,101071.81
2018-12-17T03:36:10.966Z,101073.16
2018-12-17T03:36:48.490Z,101070.20
2018-12-17T03:37:27.485Z,101071.81
2018-12-17T03:38:05.135Z,101076.12
2018-12-17T03:38:42.628Z,101068.02
2018-12-17T03:39:19.867Z,101072.33
2018-12-17T03:39:57.813Z,101067.19
2018-12-17T03:40:35.558Z,101074.75
2018-12-17T03:42:07.899Z,101072.56
2018-12-17T03:42:45.257Z,101071.50
2018-12-17T03:43:23.585Z,101075.00
2018-12-17T03:44:01.730Z,101070.66
2018-12-17T03:44:39.206Z,101072.02
2018-12-17T03:45:16.859Z,101074.17
2018-12-17T03:45:54.759Z,101067.70
2018-12-17T03:46:32.099Z,101070.38
2018-12-17T03:47:09.526Z,101067.13
2018-12-17T03:47:50.170Z,101070.92
2018-12-17T03:48:27.809Z,101071.73
2018-12-17T03:49:05.305Z,101068.48
2018-12-17T03:49:47.687Z,101074.14
2018-12-17T03:50:24.827Z,101064.73
2018-12-17T03:51:02.853Z,101071.98
2018-12-17T03:51:47.974Z,101067.37
2018-12-17T03:52:25.457Z,101070.11
2018-12-17T03:53:03.769Z,101072.24
2018-12-17T03:53:42.014Z,101072.50
2018-12-17T03:54:20.982Z,101063.65
2018-12-17T03:54:57.998Z,101065.80
2018-12-17T03:55:35.221Z,101066.90
2018-12-17T03:56:12.506Z,101066.09
2018-12-17T03:56:49.864Z,101065.00
2018-12-17T03:57:27.446Z,101065.61
2018-12-17T03:58:05.956Z,101062.39
2018-12-17T03:58:42.993Z,101067.22
2018-12-17T03:59:20.283Z,101055.11
2018-12-17T03:59:58.190Z,101065.34
2018-12-17T04:00:35.818Z,101065.89
2018-12-17T04:01:14.287Z,101068.05
2018-12-17T04:01:51.959Z,101066.44
2018-12-17T04:02:29.760Z,101066.44
2018-12-17T04:03:08.418Z,101067.24
2018-12-17T04:03:51.654Z,101069.98
2018-12-17T04:04:29.171Z,101068.05
2018-12-17T04:05:06.682Z,101057.30
2018-12-17T04:05:48.284Z,101069.66
2018-12-17T04:06:27.699Z,101058.65
2018-12-17T04:07:05.208Z,101065.61
2018-12-17T04:07:51.067Z,101068.05
2018-12-17T04:08:34.112Z,101071.81
2018-12-17T04:09:11.542Z,101059.94
2018-12-17T04:09:49.300Z,101068.86
2018-12-17T04:10:28.181Z,101058.85
2018-12-17T04:11:05.924Z,101065.31
2018-12-17T04:11:43.376Z,101063.94
2018-12-17T04:12:21.136Z,101065.29
2018-12-17T04:13:03.948Z,101061.49
2018-12-17T04:13:41.668Z,101062.30
2018-12-17T04:14:19.145Z,101066.61
2018-12-17T04:14:56.921Z,101060.40
2018-12-17T04:15:35.774Z,101063.36
2018-12-17T04:16:12.925Z,101059.30
2018-12-17T04:16:50.277Z,101055.80
2018-12-17T04:17:28.726Z,101060.66
2018-12-17T04:18:07.446Z,101061.17
2018-12-17T04:18:46.060Z,101058.20
2018-12-17T04:19:23.566Z,101053.38
2018-12-17T04:20:02.727Z,101054.99
2018-12-17T04:20:40.182Z,101052.28
2018-12-17T04:21:17.386Z,101053.38
2018-12-17T04:21:54.870Z,101054.19
2018-12-17T04:22:32.630Z,101052.29
2018-12-17T04:23:09.621Z,101045.02
2018-12-17T04:23:47.268Z,101051.23
2018-12-17T04:24:25.593Z,101046.37
2018-12-17T04:25:02.925Z,101050.13
2018-12-17T04:25:40.318Z,101043.63
2018-12-17T04:26:17.614Z,101046.88
2018-12-17T04:26:55.298Z,101033.11
2018-12-17T04:27:32.968Z,101036.33
2018-12-17T04:28:14.819Z,101043.09
2018-12-17T04:28:52.419Z,101036.36
2018-12-17T04:29:29.717Z,101041.77
2018-12-17T04:30:11.679Z,101040.96
2018-12-17T04:30:49.214Z,101041.48
2018-12-17T04:31:27.630Z,101040.13
2018-12-17T04:32:05.361Z,101042.83
2018-12-17T04:32:42.910Z,101039.32
2018-12-17T04:33:20.305Z,101036.91
2018-12-17T04:33:57.432Z,101039.32
2018-12-17T04:34:34.962Z,101034.20
2018-12-17T04:35:12.362Z,101035.01
2018-12-17T04:35:51.394Z,101036.62
2018-12-17T04:36:29.326Z,101034.46
2018-12-17T04:37:06.881Z,101030.95
2018-12-17T04:37:50.229Z,101029.31
2018-12-17T04:38:28.049Z,101032.85
2018-12-17T04:39:06.955Z,101026.39
2018-12-17T04:39:45.606Z,101033.91
2018-12-17T04:40:24.960Z,101033.66
2018-12-17T04:41:02.655Z,101028.51
2018-12-17T04:41:40.401Z,101030.95
2018-12-17T04:42:18.030Z,101022.30
2018-12-17T04:42:56.029Z,101025.26
2018-12-17T04:43:36.359Z,101025.00
2018-12-17T04:44:14.395Z,101022.84
2018-12-17T04:44:52.162Z,101022.55
2018-12-17T04:45:33.049Z,101019.85
2018-12-17T04:46:11.190Z,101016.89
2018-12-17T04:46:48.587Z,101014.45
2018-12-17T04:47:27.081Z,101016.64
2018-12-17T04:48:04.300Z,101010.69
2018-12-17T04:48:43.031Z,101002.90
2018-12-17T04:49:20.579Z,101009.08
2018-12-17T04:49:58.373Z,101012.03
2018-12-17T04:50:35.967Z,101012.03
2018-12-17T04:51:15.623Z,101010.17
2018-12-17T04:51:53.290Z,101006.41
2018-12-17T04:52:31.715Z,101005.60
2018-12-17T04:53:09.453Z,101001.00
2018-12-17T04:53:46.792Z,101005.06
2018-12-17T04:54:28.127Z,101001.81
2018-12-17T04:55:06.619Z,100988.91
2018-12-17T04:55:44.112Z,100998.30
2018-12-17T04:56:21.590Z,100994.25
2018-12-17T04:56:59.248Z,100994.53
2018-12-17T04:57:36.695Z,100998.84
2018-12-17T04:58:18.472Z,100995.34
2018-12-17T04:58:56.133Z,100997.20
2018-12-17T04:59:33.490Z,100992.86
2018-12-17T05:00:12.426Z,100990.96
2018-12-17T05:00:50.017Z,100988.25
2018-12-17T05:01:29.525Z,100988.22
2018-12-17T05:02:09.793Z,100993.34
2018-12-17T05:02:47.441Z,100989.80
2018-12-17T05:03:24.538Z,100984.64
2018-12-17T05:04:05.059Z,100986.80
2018-12-17T05:04:42.429Z,100980.84
2018-12-17T05:05:19.994Z,100981.10
2018-12-17T05:05:57.216Z,100977.05
2018-12-17T05:06:34.707Z,100963.60
2018-12-17T05:07:12.397Z,100976.47
2018-12-17T05:07:49.954Z,100971.64
2018-12-17T05:08:31.743Z,100974.53
2018-12-17T05:09:10.913Z,100965.72
2018-12-17T05:09:48.303Z,100971.09
2018-12-17T05:10:25.821Z,100976.98
2018-12-17T05:11:03.545Z,100971.35
2018-12-17T05:11:43.554Z,100973.25
2018-12-17T05:12:22.897Z,100973.54
2018-12-17T05:13:00.057Z,100969.48
2018-12-17T05:13:38.708Z,100971.64
2018-12-17T05:14:20.978Z,100965.72
2018-12-17T05:14:58.630Z,100965.47
2018-12-17T05:15:36.001Z,100966.81
2018-12-17T05:16:14.888Z,100966.81
2018-12-17T05:16:52.371Z,100960.06
2018-12-17T05:17:29.558Z,100953.63
2018-12-17T05:18:08.270Z,100958.70
2018-12-17T05:18:46.619Z,100961.12
2018-12-17T05:19:23.699Z,100950.92
2018-12-17T05:20:01.832Z,100961.12
2018-12-17T05:20:39.421Z,100956.27
2018-12-17T05:21:16.847Z,100953.02
2018-12-17T05:21:54.631Z,100956.27
2018-12-17T05:22:34.811Z,100953.81
2018-12-17T05:23:12.300Z,100954.07
2018-12-17T05:23:49.686Z,100953.78
2018-12-17T05:24:29.326Z,100947.82
2018-12-17T05:25:07.058Z,100946.73
2018-12-17T05:25:44.377Z,100945.92
2018-12-17T05:26:23.560Z,100941.32
2018-12-17T05:27:01.421Z,100944.02
2018-12-17T05:27:38.868Z,100935.91
2018-12-17T05:28:18.403Z,100935.66
2018-12-17T05:28:55.873Z,100934.34
2018-12-17T05:29:33.372Z,100932.45
2018-12-17T05:30:11.674Z,100938.95
2018-12-17T05:30:49.310Z,100922.29
2018-12-17T05:31:26.735Z,100929.05
2018-12-17T05:32:04.008Z,100928.76
2018-12-17T05:32:41.329Z,100918.53
2018-12-17T05:33:18.595Z,100918.79
2018-12-17T05:33:58.582Z,100922.29
2018-12-17T05:34:36.075Z,100925.25
2018-12-17T05:35:14.444Z,100917.14
2018-12-17T05:35:52.007Z,100914.45
2018-12-17T05:36:29.910Z,100913.92
2018-12-17T05:37:07.646Z,100913.34
2018-12-17T05:37:52.719Z,100914.95
2018-12-17T05:38:29.843Z,100910.12
2018-12-17T05:39:08.601Z,100909.00
2018-12-17T05:39:50.791Z,100905.48
2018-12-17T05:40:28.320Z,100911.95
2018-12-17T05:41:05.253Z,100904.14
2018-12-17T05:41:44.777Z,100903.33
2018-12-17T05:42:22.238Z,100896.91
2018-12-17T05:43:00.587Z,100904.18
2018-12-17T05:43:38.582Z,100900.41
2018-12-17T05:44:16.002Z,100899.88
2018-12-17T05:44:53.457Z,100895.31
2018-12-17T05:45:36.986Z,100895.05
2018-12-17T05:46:15.518Z,100896.11
2018-12-17T05:46:53.477Z,100892.60
2018-12-17T05:47:32.114Z,100883.73
2018-12-17T05:48:14.474Z,100890.96
2018-12-17T05:48:52.122Z,100885.84
2018-12-17T05:49:34.172Z,100883.19
2018-12-17T05:50:11.688Z,100885.34
2018-12-17T05:50:49.131Z,100883.98
2018-12-17T05:51:27.987Z,100886.15
2018-12-17T05:52:05.377Z,100880.48
2018-12-17T05:52:43.670Z,100880.48
2018-12-17T05:53:21.474Z,100880.74
2018-12-17T05:53:59.702Z,100878.88
2018-12-17T05:54:37.142Z,100877.27
2018-12-17T05:55:18.221Z,100879.14
2018-12-17T05:55:56.462Z,100876.17
2018-12-17T05:56:40.065Z,100880.48
2018-12-17T05:57:18.980Z,100877.53
2018-12-17T05:58:00.829Z,100881.84
2018-12-17T05:58:38.271Z,100880.48
2018-12-17T05:59:15.870Z,100878.59
2018-12-17T05:59:55.558Z,100879.39
2018-12-17T06:00:33.666Z,100876.69
2018-12-17T06:01:11.368Z,100876.69
2018-12-17T06:01:49.390Z,100875.62
2018-12-17T06:02:26.867Z,100878.33
2018-12-17T06:03:04.521Z,100870.22
2018-12-17T06:03:46.682Z,100878.33
2018-12-17T06:04:24.477Z,100872.92
2018-12-17T06:05:02.012Z,100872.92
2018-12-17T06:05:44.037Z,100874.53
2018-12-17T06:06:23.726Z,100876.98
2018-12-17T06:07:02.534Z,100858.36
2018-12-17T06:07:40.213Z,100870.22
2018-12-17T06:08:19.913Z,100862.16
2018-12-17T06:08:57.480Z,100870.22
2018-12-17T06:09:35.163Z,100862.91
2018-12-17T06:10:13.368Z,100865.08
2018-12-17T06:10:52.250Z,100862.62
2018-12-17T06:11:31.640Z,100863.72
2018-12-17T06:12:09.246Z,100869.67
2018-12-17T06:12:46.702Z,100863.46
2018-12-17T06:13:24.010Z,100857.27
2018-12-17T06:14:01.361Z,100856.42
2018-12-17T06:14:38.940Z,100855.61
2018-12-17T06:15:16.549Z,100849.66
2018-12-17T06:15:55.138Z,100856.66
2018-12-17T06:16:32.691Z,100855.02
2018-12-17T06:17:10.400Z,100844.27
2018-12-17T06:17:49.910Z,100851.22
2018-12-17T06:18:33.907Z,100843.66
2018-12-17T06:19:11.382Z,100849.88
2018-12-17T06:19:52.845Z,100849.33
2018-12-17T06:20:31.056Z,100844.21
2018-12-17T06:21:08.947Z,100839.91
2018-12-17T06:21:46.460Z,100846.36
2018-12-17T06:22:25.104Z,100846.36
2018-12-17T06:23:02.816Z,100841.75
2018-12-17T06:23:40.734Z,100839.56
2018-12-17T06:24:18.120Z,100839.27
2018-12-17T06:24:57.174Z,100843.83
2018-12-17T06:25:35.020Z,100841.13
2018-12-17T06:26:12.442Z,100837.91
2018-12-17T06:26:53.090Z,100839.77
2018-12-17T06:27:36.606Z,100838.17
2018-12-17T06:28:10.673Z,100838.72
2018-12-17T06:28:48.463Z,100833.61
2018-12-17T06:29:25.855Z,100831.16
2018-12-17T06:30:03.209Z,100832.80
2018-12-17T06:30:41.762Z,100823.91
2018-12-17T06:31:19.251Z,100831.16
2018-12-17T06:32:06.895Z,100831.16
2018-12-17T06:32:47.811Z,100826.59
2018-12-17T06:33:25.507Z,100828.20
2018-12-17T06:34:03.810Z,100819.89
2018-12-17T06:34:42.866Z,100830.14
2018-12-17T06:35:20.201Z,100821.75
2018-12-17T06:35:58.065Z,100824.48
2018-12-17T06:36:35.290Z,100828.00
2018-12-17T06:37:12.994Z,100816.64
2018-12-17T06:37:50.763Z,100823.69
2018-12-17T06:38:28.205Z,100819.13
2018-12-17T06:39:06.834Z,100818.28
2018-12-17T06:39:44.070Z,100812.63
2018-12-17T06:40:21.645Z,100819.94
2018-12-17T06:41:01.251Z,100816.17
2018-12-17T06:41:39.003Z,100810.56
2018-12-17T06:42:16.334Z,100803.84
2018-12-17T06:42:53.943Z,100812.97
2018-12-17T06:43:32.397Z,100808.36
2018-12-17T06:44:11.261Z,100811.03
2018-12-17T06:44:54.707Z,100806.97
2018-12-17T06:45:32.153Z,100816.73
2018-12-17T06:46:09.624Z,100811.58
2018-12-17T06:46:50.409Z,100807.27
2018-12-17T06:47:27.873Z,100811.58
2018-12-17T06:48:05.062Z,100807.52
2018-12-17T06:48:42.783Z,100803.72
2018-12-17T06:49:23.830Z,100805.36
2018-12-17T06:50:01.399Z,100809.13
2018-12-17T06:50:38.791Z,100809.66
2018-12-17T06:51:15.862Z,100805.61
2018-12-17T06:51:54.549Z,100805.32
2018-12-17T06:52:35.466Z,100803.67
2018-12-17T06:53:12.828Z,100806.37
2018-12-17T06:53:50.359Z,100809.59
2018-12-17T06:54:30.476Z,100805.53
2018-12-17T06:55:08.211Z,100805.27
2018-12-17T06:55:45.584Z,100805.23
2018-12-17T06:56:24.611Z,100807.59
2018-12-17T06:57:01.804Z,100801.34
2018-12-17T06:57:40.184Z,100803.20
2018-12-17T06:58:17.943Z,100798.64
2018-12-17T06:58:55.229Z,100809.66
2018-12-17T06:59:33.714Z,100806.75
2018-12-17T07:00:11.606Z,100813.72
2018-12-17T07:00:49.292Z,100808.56
2018-12-17T07:01:28.104Z,100805.81
2018-12-17T07:02:08.081Z,100809.62
2018-12-17T07:02:45.561Z,100804.47
2018-12-17T07:03:23.343Z,100804.72
2018-12-17T07:04:01.091Z,100802.52
2018-12-17T07:04:38.853Z,100799.06
2018-12-17T07:05:16.491Z,100798.72
2018-12-17T07:05:54.165Z,100802.76
2018-12-17T07:06:31.593Z,100798.95
2018-12-17T07:07:10.021Z,100786.00
2018-12-17T07:07:47.320Z,100792.66
2018-12-17T07:08:30.240Z,100789.49
2018-12-17T07:09:08.830Z,100790.20
2018-12-17T07:09:46.444Z,100790.16
2018-12-17T07:10:24.960Z,100788.60
2018-12-17T07:11:03.210Z,100792.31
2018-12-17T07:11:41.653Z,100790.12
2018-12-17T07:12:19.300Z,100786.06
2018-12-17T07:12:57.530Z,100789.52
2018-12-17T07:13:34.909Z,100783.10
2018-12-17T07:14:12.469Z,100790.32
2018-12-17T07:14:50.751Z,100786.22
2018-12-17T07:15:28.486Z,100789.42
2018-12-17T07:16:05.889Z,100789.17
2018-12-17T07:16:43.212Z,100790.53
2018-12-17T07:17:20.815Z,100789.77
2018-12-17T07:17:59.357Z,100786.77
2018-12-17T07:18:36.276Z,100790.02
2018-12-17T07:19:13.443Z,100786.22
2018-12-17T07:19:51.580Z,100786.81
2018-12-17T07:20:28.769Z,100784.87
2018-12-17T07:21:06.281Z,100789.17
2018-12-17T07:21:53.361Z,100786.22
2018-12-17T07:22:34.248Z,100791.88
2018-12-17T07:23:11.792Z,100784.82
2018-12-17T07:23:49.191Z,100785.67
2018-12-17T07:24:29.482Z,100784.82